sensor_id;sensor_type;location;lat;lon;timestamp;P1;durP1;ratioP1;P2;durP2;ratioP2
68089;SDS011;54880;50.986;6.990;2023-03-03T00:01:52;42.13;;;18.77;;
68089;SDS011;54880;50.986;6.990;2023-03-03T00:04:17;43.63;;;19.30;;
68089;SDS011;54880;50.986;6.990;2023-03-03T00:06:44;38.30;;;16.70;;
68089;SDS011;54880;50.986;6.990;2023-03-03T00:09:09;37.87;;;17.87;;
68089;SDS011;54880;50.986;6.990;2023-03-03T00:11:34;37.08;;;17.88;;
68089;SDS011;54880;50.986;6.990;2023-03-03T00:13:59;35.87;;;17.40;;
68089;SDS011;54880;50.986;6.990;2023-03-03T00:16:27;39.22;;;17.05;;
68089;SDS011;54880;50.986;6.990;2023-03-03T00:18:52;37.83;;;18.23;;
68089;SDS011;54880;50.986;6.990;2023-03-03T00:23:44;38.95;;;18.00;;
68089;SDS011;54880;50.986;6.990;2023-03-03T00:26:26;36.60;;;16.87;;
68089;SDS011;54880;50.986;6.990;2023-03-03T00:28:53;40.72;;;17.83;;
68089;SDS011;54880;50.986;6.990;2023-03-03T00:31:28;37.23;;;17.80;;
68089;SDS011;54880;50.986;6.990;2023-03-03T00:33:54;40.45;;;17.63;;
68089;SDS011;54880;50.986;6.990;2023-03-03T00:36:22;39.53;;;17.35;;
68089;SDS011;54880;50.986;6.990;2023-03-03T00:38:52;40.42;;;18.05;;
68089;SDS011;54880;50.986;6.990;2023-03-03T00:41:24;38.57;;;17.70;;
68089;SDS011;54880;50.986;6.990;2023-03-03T00:43:50;36.97;;;17.80;;
68089;SDS011;54880;50.986;6.990;2023-03-03T00:46:19;41.70;;;18.63;;
68089;SDS011;54880;50.986;6.990;2023-03-03T00:48:45;43.17;;;19.92;;
68089;SDS011;54880;50.986;6.990;2023-03-03T00:53:56;39.63;;;18.20;;
68089;SDS011;54880;50.986;6.990;2023-03-03T00:56:21;40.67;;;19.02;;
68089;SDS011;54880;50.986;6.990;2023-03-03T00:58:47;41.67;;;18.30;;
68089;SDS011;54880;50.986;6.990;2023-03-03T01:01:15;46.30;;;19.25;;
68089;SDS011;54880;50.986;6.990;2023-03-03T01:03:44;46.87;;;20.13;;
68089;SDS011;54880;50.986;6.990;2023-03-03T01:06:10;40.13;;;19.73;;
68089;SDS011;54880;50.986;6.990;2023-03-03T01:08:36;42.03;;;19.48;;
68089;SDS011;54880;50.986;6.990;2023-03-03T01:11:11;40.50;;;19.40;;
68089;SDS011;54880;50.986;6.990;2023-03-03T01:13:38;45.00;;;20.13;;
68089;SDS011;54880;50.986;6.990;2023-03-03T01:16:04;45.88;;;20.58;;
68089;SDS011;54880;50.986;6.990;2023-03-03T01:18:29;45.37;;;19.83;;
68089;SDS011;54880;50.986;6.990;2023-03-03T01:20:55;48.30;;;21.10;;
68089;SDS011;54880;50.986;6.990;2023-03-03T01:23:20;48.40;;;21.07;;
68089;SDS011;54880;50.986;6.990;2023-03-03T01:25:45;42.53;;;19.77;;
68089;SDS011;54880;50.986;6.990;2023-03-03T01:28:11;47.27;;;21.20;;
68089;SDS011;54880;50.986;6.990;2023-03-03T01:30:36;43.60;;;20.73;;
68089;SDS011;54880;50.986;6.990;2023-03-03T01:33:01;45.23;;;20.77;;
68089;SDS011;54880;50.986;6.990;2023-03-03T01:35:27;48.43;;;20.23;;
68089;SDS011;54880;50.986;6.990;2023-03-03T01:37:53;46.20;;;20.75;;
68089;SDS011;54880;50.986;6.990;2023-03-03T01:40:21;48.83;;;20.90;;
68089;SDS011;54880;50.986;6.990;2023-03-03T01:42:47;47.75;;;20.13;;
68089;SDS011;54880;50.986;6.990;2023-03-03T01:45:27;51.87;;;20.90;;
68089;SDS011;54880;50.986;6.990;2023-03-03T01:48:00;44.22;;;19.50;;
68089;SDS011;54880;50.986;6.990;2023-03-03T01:50:31;51.30;;;21.90;;
68089;SDS011;54880;50.986;6.990;2023-03-03T01:52:58;43.17;;;19.77;;
68089;SDS011;54880;50.986;6.990;2023-03-03T01:55:27;46.17;;;20.38;;
68089;SDS011;54880;50.986;6.990;2023-03-03T01:57:58;51.95;;;21.80;;
68089;SDS011;54880;50.986;6.990;2023-03-03T02:00:24;47.10;;;21.42;;
68089;SDS011;54880;50.986;6.990;2023-03-03T02:02:50;49.83;;;21.90;;
68089;SDS011;54880;50.986;6.990;2023-03-03T02:05:15;52.90;;;21.85;;
68089;SDS011;54880;50.986;6.990;2023-03-03T02:07:41;46.83;;;21.40;;
68089;SDS011;54880;50.986;6.990;2023-03-03T02:10:15;55.53;;;21.02;;
68089;SDS011;54880;50.986;6.990;2023-03-03T02:12:59;47.17;;;20.48;;
68089;SDS011;54880;50.986;6.990;2023-03-03T02:15:28;50.28;;;21.77;;
68089;SDS011;54880;50.986;6.990;2023-03-03T02:17:54;47.97;;;21.13;;
68089;SDS011;54880;50.986;6.990;2023-03-03T02:20:29;53.47;;;22.02;;
68089;SDS011;54880;50.986;6.990;2023-03-03T02:22:57;45.63;;;20.40;;
68089;SDS011;54880;50.986;6.990;2023-03-03T02:25:43;49.25;;;20.45;;
68089;SDS011;54880;50.986;6.990;2023-03-03T02:28:10;47.17;;;21.27;;
68089;SDS011;54880;50.986;6.990;2023-03-03T02:30:36;46.70;;;19.03;;
68089;SDS011;54880;50.986;6.990;2023-03-03T02:33:02;48.73;;;20.10;;
68089;SDS011;54880;50.986;6.990;2023-03-03T02:35:32;47.75;;;20.35;;
68089;SDS011;54880;50.986;6.990;2023-03-03T02:38:05;48.47;;;21.27;;
68089;SDS011;54880;50.986;6.990;2023-03-03T02:40:32;46.15;;;20.52;;
68089;SDS011;54880;50.986;6.990;2023-03-03T02:43:00;48.03;;;21.00;;
68089;SDS011;54880;50.986;6.990;2023-03-03T02:45:26;53.15;;;20.90;;
68089;SDS011;54880;50.986;6.990;2023-03-03T02:47:52;51.80;;;22.57;;
68089;SDS011;54880;50.986;6.990;2023-03-03T02:50:17;45.80;;;19.80;;
68089;SDS011;54880;50.986;6.990;2023-03-03T02:52:42;45.67;;;19.20;;
68089;SDS011;54880;50.986;6.990;2023-03-03T02:55:08;52.00;;;19.87;;
68089;SDS011;54880;50.986;6.990;2023-03-03T02:57:33;47.23;;;19.57;;
68089;SDS011;54880;50.986;6.990;2023-03-03T02:59:58;52.87;;;19.97;;
68089;SDS011;54880;50.986;6.990;2023-03-03T03:02:24;50.03;;;20.17;;
68089;SDS011;54880;50.986;6.990;2023-03-03T03:04:51;49.95;;;20.63;;
68089;SDS011;54880;50.986;6.990;2023-03-03T03:07:21;47.53;;;20.77;;
68089;SDS011;54880;50.986;6.990;2023-03-03T03:09:46;45.27;;;19.87;;
68089;SDS011;54880;50.986;6.990;2023-03-03T03:12:12;51.08;;;20.08;;
68089;SDS011;54880;50.986;6.990;2023-03-03T03:14:37;48.60;;;20.80;;
68089;SDS011;54880;50.986;6.990;2023-03-03T03:17:04;47.88;;;19.85;;
68089;SDS011;54880;50.986;6.990;2023-03-03T03:19:29;45.13;;;19.63;;
68089;SDS011;54880;50.986;6.990;2023-03-03T03:21:58;47.50;;;19.73;;
68089;SDS011;54880;50.986;6.990;2023-03-03T03:24:23;43.80;;;19.17;;
68089;SDS011;54880;50.986;6.990;2023-03-03T03:26:56;47.50;;;18.77;;
68089;SDS011;54880;50.986;6.990;2023-03-03T03:29:23;44.33;;;19.20;;
68089;SDS011;54880;50.986;6.990;2023-03-03T03:31:49;49.30;;;19.03;;
68089;SDS011;54880;50.986;6.990;2023-03-03T03:34:14;47.57;;;18.80;;
68089;SDS011;54880;50.986;6.990;2023-03-03T03:36:39;44.27;;;19.07;;
68089;SDS011;54880;50.986;6.990;2023-03-03T03:39:04;48.73;;;20.77;;
68089;SDS011;54880;50.986;6.990;2023-03-03T03:41:32;50.60;;;19.23;;
68089;SDS011;54880;50.986;6.990;2023-03-03T03:43:58;48.73;;;19.90;;
68089;SDS011;54880;50.986;6.990;2023-03-03T03:46:23;49.73;;;19.40;;
68089;SDS011;54880;50.986;6.990;2023-03-03T03:48:48;43.27;;;18.83;;
68089;SDS011;54880;50.986;6.990;2023-03-03T03:51:16;45.13;;;19.30;;
68089;SDS011;54880;50.986;6.990;2023-03-03T03:53:41;44.20;;;17.13;;
68089;SDS011;54880;50.986;6.990;2023-03-03T03:56:07;40.83;;;18.00;;
68089;SDS011;54880;50.986;6.990;2023-03-03T03:58:32;43.43;;;17.53;;
68089;SDS011;54880;50.986;6.990;2023-03-03T04:01:05;38.97;;;17.13;;
68089;SDS011;54880;50.986;6.990;2023-03-03T04:03:34;41.30;;;17.30;;
68089;SDS011;54880;50.986;6.990;2023-03-03T04:06:02;42.20;;;17.23;;
68089;SDS011;54880;50.986;6.990;2023-03-03T04:08:28;42.63;;;16.27;;
68089;SDS011;54880;50.986;6.990;2023-03-03T04:10:54;40.85;;;17.27;;
68089;SDS011;54880;50.986;6.990;2023-03-03T04:13:19;45.20;;;18.20;;
68089;SDS011;54880;50.986;6.990;2023-03-03T04:15:44;41.50;;;17.07;;
68089;SDS011;54880;50.986;6.990;2023-03-03T04:18:10;38.67;;;17.03;;
68089;SDS011;54880;50.986;6.990;2023-03-03T04:20:36;42.80;;;16.67;;
68089;SDS011;54880;50.986;6.990;2023-03-03T04:23:01;34.17;;;14.90;;
68089;SDS011;54880;50.986;6.990;2023-03-03T04:25:28;38.53;;;16.38;;
68089;SDS011;54880;50.986;6.990;2023-03-03T04:27:54;37.83;;;16.63;;
68089;SDS011;54880;50.986;6.990;2023-03-03T04:30:20;39.13;;;16.50;;
68089;SDS011;54880;50.986;6.990;2023-03-03T04:32:48;39.33;;;16.63;;
68089;SDS011;54880;50.986;6.990;2023-03-03T04:35:17;37.58;;;15.95;;
68089;SDS011;54880;50.986;6.990;2023-03-03T04:37:43;37.85;;;15.65;;
68089;SDS011;54880;50.986;6.990;2023-03-03T04:40:09;36.42;;;15.88;;
68089;SDS011;54880;50.986;6.990;2023-03-03T04:42:35;40.40;;;16.08;;
68089;SDS011;54880;50.986;6.990;2023-03-03T04:45:02;41.80;;;16.40;;
68089;SDS011;54880;50.986;6.990;2023-03-03T04:47:28;35.55;;;14.93;;
68089;SDS011;54880;50.986;6.990;2023-03-03T04:49:53;38.57;;;16.33;;
68089;SDS011;54880;50.986;6.990;2023-03-03T04:52:19;41.00;;;15.98;;
68089;SDS011;54880;50.986;6.990;2023-03-03T04:54:45;37.60;;;14.63;;
68089;SDS011;54880;50.986;6.990;2023-03-03T04:57:10;39.97;;;15.33;;
68089;SDS011;54880;50.986;6.990;2023-03-03T04:59:35;37.50;;;15.60;;
68089;SDS011;54880;50.986;6.990;2023-03-03T05:02:01;41.47;;;15.40;;
68089;SDS011;54880;50.986;6.990;2023-03-03T05:04:26;38.50;;;15.83;;
68089;SDS011;54880;50.986;6.990;2023-03-03T05:06:51;37.50;;;14.67;;
68089;SDS011;54880;50.986;6.990;2023-03-03T05:09:16;38.10;;;14.83;;
68089;SDS011;54880;50.986;6.990;2023-03-03T05:11:42;35.47;;;15.57;;
68089;SDS011;54880;50.986;6.990;2023-03-03T05:14:07;36.33;;;14.70;;
68089;SDS011;54880;50.986;6.990;2023-03-03T05:16:32;38.30;;;16.30;;
68089;SDS011;54880;50.986;6.990;2023-03-03T05:18:57;36.13;;;15.63;;
68089;SDS011;54880;50.986;6.990;2023-03-03T05:21:23;37.87;;;15.47;;
68089;SDS011;54880;50.986;6.990;2023-03-03T05:23:48;37.97;;;14.73;;
68089;SDS011;54880;50.986;6.990;2023-03-03T05:26:13;36.23;;;13.97;;
68089;SDS011;54880;50.986;6.990;2023-03-03T05:28:39;34.20;;;13.68;;
68089;SDS011;54880;50.986;6.990;2023-03-03T05:31:04;34.03;;;14.43;;
68089;SDS011;54880;50.986;6.990;2023-03-03T05:33:29;39.22;;;15.68;;
68089;SDS011;54880;50.986;6.990;2023-03-03T05:35:55;36.17;;;14.52;;
68089;SDS011;54880;50.986;6.990;2023-03-03T05:38:21;39.27;;;14.57;;
68089;SDS011;54880;50.986;6.990;2023-03-03T05:40:46;39.67;;;15.40;;
68089;SDS011;54880;50.986;6.990;2023-03-03T05:43:11;35.23;;;14.73;;
68089;SDS011;54880;50.986;6.990;2023-03-03T05:45:37;41.37;;;16.37;;
68089;SDS011;54880;50.986;6.990;2023-03-03T05:48:02;36.03;;;14.43;;
68089;SDS011;54880;50.986;6.990;2023-03-03T05:50:29;34.10;;;14.88;;
68089;SDS011;54880;50.986;6.990;2023-03-03T05:52:54;33.13;;;13.97;;
68089;SDS011;54880;50.986;6.990;2023-03-03T05:55:19;37.30;;;14.50;;
68089;SDS011;54880;50.986;6.990;2023-03-03T05:57:45;32.87;;;12.70;;
68089;SDS011;54880;50.986;6.990;2023-03-03T06:00:11;33.33;;;13.57;;
68089;SDS011;54880;50.986;6.990;2023-03-03T06:02:39;34.97;;;13.93;;
68089;SDS011;54880;50.986;6.990;2023-03-03T06:05:05;34.28;;;14.25;;
68089;SDS011;54880;50.986;6.990;2023-03-03T06:07:31;33.80;;;14.47;;
68089;SDS011;54880;50.986;6.990;2023-03-03T06:09:59;34.10;;;14.57;;
68089;SDS011;54880;50.986;6.990;2023-03-03T06:12:29;33.78;;;14.10;;
68089;SDS011;54880;50.986;6.990;2023-03-03T06:14:57;37.13;;;14.80;;
68089;SDS011;54880;50.986;6.990;2023-03-03T06:17:36;34.58;;;13.65;;
68089;SDS011;54880;50.986;6.990;2023-03-03T06:20:14;36.60;;;14.13;;
68089;SDS011;54880;50.986;6.990;2023-03-03T06:23:19;34.07;;;13.10;;
68089;SDS011;54880;50.986;6.990;2023-03-03T06:25:51;33.80;;;14.18;;
68089;SDS011;54880;50.986;6.990;2023-03-03T06:28:17;31.25;;;13.05;;
68089;SDS011;54880;50.986;6.990;2023-03-03T06:30:42;33.80;;;14.00;;
68089;SDS011;54880;50.986;6.990;2023-03-03T06:33:08;33.33;;;14.07;;
68089;SDS011;54880;50.986;6.990;2023-03-03T06:35:33;36.37;;;15.00;;
68089;SDS011;54880;50.986;6.990;2023-03-03T06:37:58;32.75;;;13.80;;
68089;SDS011;54880;50.986;6.990;2023-03-03T06:40:24;35.05;;;13.38;;
68089;SDS011;54880;50.986;6.990;2023-03-03T06:42:49;31.47;;;12.30;;
68089;SDS011;54880;50.986;6.990;2023-03-03T06:45:14;33.07;;;12.60;;
68089;SDS011;54880;50.986;6.990;2023-03-03T06:47:40;31.50;;;12.60;;
68089;SDS011;54880;50.986;6.990;2023-03-03T06:50:05;32.83;;;13.60;;
68089;SDS011;54880;50.986;6.990;2023-03-03T06:52:31;34.80;;;13.83;;
68089;SDS011;54880;50.986;6.990;2023-03-03T06:54:57;34.10;;;13.00;;
68089;SDS011;54880;50.986;6.990;2023-03-03T06:57:26;31.95;;;12.55;;
68089;SDS011;54880;50.986;6.990;2023-03-03T06:59:53;32.38;;;12.90;;
68089;SDS011;54880;50.986;6.990;2023-03-03T07:02:19;28.20;;;12.50;;
68089;SDS011;54880;50.986;6.990;2023-03-03T07:04:45;31.40;;;13.05;;
68089;SDS011;54880;50.986;6.990;2023-03-03T07:07:18;31.30;;;12.57;;
68089;SDS011;54880;50.986;6.990;2023-03-03T07:09:46;28.58;;;12.60;;
68089;SDS011;54880;50.986;6.990;2023-03-03T07:12:18;31.50;;;12.47;;
68089;SDS011;54880;50.986;6.990;2023-03-03T07:14:49;28.98;;;12.38;;
68089;SDS011;54880;50.986;6.990;2023-03-03T07:17:24;32.90;;;13.35;;
68089;SDS011;54880;50.986;6.990;2023-03-03T07:19:50;31.83;;;11.75;;
68089;SDS011;54880;50.986;6.990;2023-03-03T07:24:53;30.15;;;12.15;;
68089;SDS011;54880;50.986;6.990;2023-03-03T07:27:28;32.67;;;12.70;;
68089;SDS011;54880;50.986;6.990;2023-03-03T07:29:54;30.20;;;12.68;;
68089;SDS011;54880;50.986;6.990;2023-03-03T07:32:39;34.03;;;13.07;;
68089;SDS011;54880;50.986;6.990;2023-03-03T07:37:53;30.52;;;11.23;;
68089;SDS011;54880;50.986;6.990;2023-03-03T07:42:49;26.55;;;11.15;;
68089;SDS011;54880;50.986;6.990;2023-03-03T07:45:27;29.43;;;11.80;;
68089;SDS011;54880;50.986;6.990;2023-03-03T07:48:00;26.60;;;11.23;;
68089;SDS011;54880;50.986;6.990;2023-03-03T07:50:29;32.63;;;11.82;;
68089;SDS011;54880;50.986;6.990;2023-03-03T07:52:56;30.53;;;11.60;;
68089;SDS011;54880;50.986;6.990;2023-03-03T07:55:35;30.38;;;12.05;;
68089;SDS011;54880;50.986;6.990;2023-03-03T07:58:46;29.33;;;12.10;;
68089;SDS011;54880;50.986;6.990;2023-03-03T08:03:16;27.42;;;11.43;;
68089;SDS011;54880;50.986;6.990;2023-03-03T08:05:42;26.75;;;11.23;;
68089;SDS011;54880;50.986;6.990;2023-03-03T08:10:46;27.43;;;11.23;;
68089;SDS011;54880;50.986;6.990;2023-03-03T08:13:15;27.43;;;11.00;;
68089;SDS011;54880;50.986;6.990;2023-03-03T08:15:41;31.45;;;11.80;;
68089;SDS011;54880;50.986;6.990;2023-03-03T08:23:32;26.75;;;10.55;;
68089;SDS011;54880;50.986;6.990;2023-03-03T08:25:57;28.97;;;11.33;;
68089;SDS011;54880;50.986;6.990;2023-03-03T08:28:23;28.30;;;10.57;;
68089;SDS011;54880;50.986;6.990;2023-03-03T08:30:48;23.73;;;9.73;;
68089;SDS011;54880;50.986;6.990;2023-03-03T08:33:14;26.73;;;10.50;;
68089;SDS011;54880;50.986;6.990;2023-03-03T08:35:39;28.93;;;12.00;;
68089;SDS011;54880;50.986;6.990;2023-03-03T08:38:05;26.73;;;11.53;;
68089;SDS011;54880;50.986;6.990;2023-03-03T08:40:31;27.23;;;10.77;;
68089;SDS011;54880;50.986;6.990;2023-03-03T08:42:56;26.10;;;11.35;;
68089;SDS011;54880;50.986;6.990;2023-03-03T08:45:22;27.83;;;11.48;;
68089;SDS011;54880;50.986;6.990;2023-03-03T08:47:48;25.93;;;10.43;;
68089;SDS011;54880;50.986;6.990;2023-03-03T08:50:13;23.80;;;9.70;;
68089;SDS011;54880;50.986;6.990;2023-03-03T08:52:39;23.27;;;9.23;;
68089;SDS011;54880;50.986;6.990;2023-03-03T08:55:04;25.17;;;9.60;;
68089;SDS011;54880;50.986;6.990;2023-03-03T08:57:30;28.60;;;10.70;;
68089;SDS011;54880;50.986;6.990;2023-03-03T08:59:56;29.87;;;11.30;;
68089;SDS011;54880;50.986;6.990;2023-03-03T09:02:22;27.25;;;10.60;;
68089;SDS011;54880;50.986;6.990;2023-03-03T09:04:47;28.90;;;11.37;;
68089;SDS011;54880;50.986;6.990;2023-03-03T09:07:12;27.17;;;10.67;;
68089;SDS011;54880;50.986;6.990;2023-03-03T09:09:37;30.43;;;11.03;;
68089;SDS011;54880;50.986;6.990;2023-03-03T09:12:26;32.03;;;11.85;;
68089;SDS011;54880;50.986;6.990;2023-03-03T09:14:52;23.77;;;10.43;;
68089;SDS011;54880;50.986;6.990;2023-03-03T09:19:52;29.70;;;10.83;;
68089;SDS011;54880;50.986;6.990;2023-03-03T09:22:20;27.63;;;11.13;;
68089;SDS011;54880;50.986;6.990;2023-03-03T09:24:46;31.60;;;13.43;;
68089;SDS011;54880;50.986;6.990;2023-03-03T09:27:14;32.05;;;11.65;;
68089;SDS011;54880;50.986;6.990;2023-03-03T09:29:42;28.08;;;11.10;;
68089;SDS011;54880;50.986;6.990;2023-03-03T09:32:30;26.13;;;10.30;;
68089;SDS011;54880;50.986;6.990;2023-03-03T09:34:57;24.07;;;10.33;;
68089;SDS011;54880;50.986;6.990;2023-03-03T09:37:32;26.38;;;10.43;;
68089;SDS011;54880;50.986;6.990;2023-03-03T09:40:00;26.90;;;11.30;;
68089;SDS011;54880;50.986;6.990;2023-03-03T09:42:34;28.53;;;10.37;;
68089;SDS011;54880;50.986;6.990;2023-03-03T09:47:46;23.10;;;9.55;;
68089;SDS011;54880;50.986;6.990;2023-03-03T10:05:20;29.00;;;11.40;;
68089;SDS011;54880;50.986;6.990;2023-03-03T10:13:30;34.67;;;12.87;;
68089;SDS011;54880;50.986;6.990;2023-03-03T10:16:08;36.72;;;13.80;;
68089;SDS011;54880;50.986;6.990;2023-03-03T10:21:08;32.92;;;12.93;;
68089;SDS011;54880;50.986;6.990;2023-03-03T10:23:53;34.65;;;13.40;;
68089;SDS011;54880;50.986;6.990;2023-03-03T10:31:13;30.40;;;12.47;;
68089;SDS011;54880;50.986;6.990;2023-03-03T10:36:33;33.40;;;12.50;;
68089;SDS011;54880;50.986;6.990;2023-03-03T10:39:16;33.58;;;12.25;;
68089;SDS011;54880;50.986;6.990;2023-03-03T10:44:17;35.87;;;13.20;;
68089;SDS011;54880;50.986;6.990;2023-03-03T10:47:04;32.47;;;12.63;;
68089;SDS011;54880;50.986;6.990;2023-03-03T10:52:16;30.48;;;12.95;;
68089;SDS011;54880;50.986;6.990;2023-03-03T10:57:36;36.95;;;13.93;;
68089;SDS011;54880;50.986;6.990;2023-03-03T11:07:38;36.28;;;13.55;;
68089;SDS011;54880;50.986;6.990;2023-03-03T11:25:44;39.28;;;14.55;;
68089;SDS011;54880;50.986;6.990;2023-03-03T11:33:22;34.20;;;12.60;;
68089;SDS011;54880;50.986;6.990;2023-03-03T11:41:21;36.42;;;13.55;;
68089;SDS011;54880;50.986;6.990;2023-03-03T11:43:52;35.58;;;13.57;;
68089;SDS011;54880;50.986;6.990;2023-03-03T11:46:21;32.50;;;13.00;;
68089;SDS011;54880;50.986;6.990;2023-03-03T11:51:24;37.40;;;13.82;;
68089;SDS011;54880;50.986;6.990;2023-03-03T11:53:56;36.67;;;13.90;;
68089;SDS011;54880;50.986;6.990;2023-03-03T12:01:37;37.10;;;13.73;;
68089;SDS011;54880;50.986;6.990;2023-03-03T12:04:19;32.13;;;13.20;;
68089;SDS011;54880;50.986;6.990;2023-03-03T12:15:30;33.83;;;12.95;;
68089;SDS011;54880;50.986;6.990;2023-03-03T12:18:26;41.63;;;15.37;;
68089;SDS011;54880;50.986;6.990;2023-03-03T12:23:03;37.35;;;15.10;;
68089;SDS011;54880;50.986;6.990;2023-03-03T12:33:00;34.28;;;13.02;;
68089;SDS011;54880;50.986;6.990;2023-03-03T12:38:10;32.72;;;13.50;;
68089;SDS011;54880;50.986;6.990;2023-03-03T12:40:43;35.00;;;13.30;;
68089;SDS011;54880;50.986;6.990;2023-03-03T12:43:18;31.73;;;13.32;;
68089;SDS011;54880;50.986;6.990;2023-03-03T12:46:11;34.15;;;13.38;;
68089;SDS011;54880;50.986;6.990;2023-03-03T12:48:42;39.63;;;14.07;;
68089;SDS011;54880;50.986;6.990;2023-03-03T12:51:16;35.70;;;15.55;;
68089;SDS011;54880;50.986;6.990;2023-03-03T12:53:49;36.80;;;13.43;;
68089;SDS011;54880;50.986;6.990;2023-03-03T12:56:28;36.70;;;13.30;;
68089;SDS011;54880;50.986;6.990;2023-03-03T12:59:08;34.03;;;13.35;;
68089;SDS011;54880;50.986;6.990;2023-03-03T13:16:38;35.95;;;13.90;;
68089;SDS011;54880;50.986;6.990;2023-03-03T13:19:13;39.00;;;14.17;;
68089;SDS011;54880;50.986;6.990;2023-03-03T13:21:48;39.42;;;14.38;;
68089;SDS011;54880;50.986;6.990;2023-03-03T13:24:16;33.65;;;13.25;;
68089;SDS011;54880;50.986;6.990;2023-03-03T13:26:55;36.35;;;14.27;;
68089;SDS011;54880;50.986;6.990;2023-03-03T13:32:27;37.40;;;14.13;;
68089;SDS011;54880;50.986;6.990;2023-03-03T13:37:15;38.17;;;14.70;;
68089;SDS011;54880;50.986;6.990;2023-03-03T13:40:04;37.55;;;14.75;;
68089;SDS011;54880;50.986;6.990;2023-03-03T13:42:39;40.28;;;15.30;;
68089;SDS011;54880;50.986;6.990;2023-03-03T13:45:16;38.40;;;15.27;;
68089;SDS011;54880;50.986;6.990;2023-03-03T13:47:46;37.28;;;15.07;;
68089;SDS011;54880;50.986;6.990;2023-03-03T13:55:44;42.35;;;15.40;;
68089;SDS011;54880;50.986;6.990;2023-03-03T13:58:21;38.37;;;14.43;;
68089;SDS011;54880;50.986;6.990;2023-03-03T14:00:51;41.35;;;14.82;;
68089;SDS011;54880;50.986;6.990;2023-03-03T14:06:04;44.80;;;16.33;;
68089;SDS011;54880;50.986;6.990;2023-03-03T14:11:28;41.63;;;15.37;;
68089;SDS011;54880;50.986;6.990;2023-03-03T14:14:02;40.97;;;15.55;;
68089;SDS011;54880;50.986;6.990;2023-03-03T14:18:54;42.27;;;15.60;;
68089;SDS011;54880;50.986;6.990;2023-03-03T14:21:25;44.38;;;15.07;;
68089;SDS011;54880;50.986;6.990;2023-03-03T14:24:09;35.13;;;13.35;;
68089;SDS011;54880;50.986;6.990;2023-03-03T14:26:45;43.27;;;14.50;;
68089;SDS011;54880;50.986;6.990;2023-03-03T14:31:45;43.10;;;14.25;;
68089;SDS011;54880;50.986;6.990;2023-03-03T14:39:45;46.45;;;15.63;;
68089;SDS011;54880;50.986;6.990;2023-03-03T14:42:12;44.53;;;15.40;;
68089;SDS011;54880;50.986;6.990;2023-03-03T14:47:11;45.55;;;15.40;;
68089;SDS011;54880;50.986;6.990;2023-03-03T14:49:40;45.77;;;16.33;;
68089;SDS011;54880;50.986;6.990;2023-03-03T14:54:50;45.42;;;16.10;;
68089;SDS011;54880;50.986;6.990;2023-03-03T14:59:54;41.60;;;16.23;;
68089;SDS011;54880;50.986;6.990;2023-03-03T15:02:25;40.95;;;15.85;;
68089;SDS011;54880;50.986;6.990;2023-03-03T15:04:52;38.15;;;12.95;;
68089;SDS011;54880;50.986;6.990;2023-03-03T15:07:36;47.57;;;16.30;;
68089;SDS011;54880;50.986;6.990;2023-03-03T15:10:03;49.28;;;16.27;;
68089;SDS011;54880;50.986;6.990;2023-03-03T15:17:34;43.13;;;16.48;;
68089;SDS011;54880;50.986;6.990;2023-03-03T15:25:03;48.08;;;15.50;;
68089;SDS011;54880;50.986;6.990;2023-03-03T15:27:35;45.88;;;16.25;;
68089;SDS011;54880;50.986;6.990;2023-03-03T15:32:42;41.70;;;15.85;;
68089;SDS011;54880;50.986;6.990;2023-03-03T15:35:16;43.17;;;15.93;;
68089;SDS011;54880;50.986;6.990;2023-03-03T15:43:05;43.15;;;15.98;;
68089;SDS011;54880;50.986;6.990;2023-03-03T15:50:40;43.17;;;16.33;;
68089;SDS011;54880;50.986;6.990;2023-03-03T15:55:57;36.83;;;14.55;;
68089;SDS011;54880;50.986;6.990;2023-03-03T15:58:38;43.65;;;15.85;;
68089;SDS011;54880;50.986;6.990;2023-03-03T16:03:46;41.75;;;14.95;;
68089;SDS011;54880;50.986;6.990;2023-03-03T16:06:27;44.93;;;15.27;;
68089;SDS011;54880;50.986;6.990;2023-03-03T16:11:27;39.42;;;15.10;;
68089;SDS011;54880;50.986;6.990;2023-03-03T16:14:03;39.10;;;14.55;;
68089;SDS011;54880;50.986;6.990;2023-03-03T16:16:32;40.47;;;15.52;;
68089;SDS011;54880;50.986;6.990;2023-03-03T16:19:10;38.57;;;14.07;;
68089;SDS011;54880;50.986;6.990;2023-03-03T16:24:55;38.97;;;14.25;;
68089;SDS011;54880;50.986;6.990;2023-03-03T16:37:25;38.33;;;14.43;;
68089;SDS011;54880;50.986;6.990;2023-03-03T16:39:53;41.35;;;15.63;;
68089;SDS011;54880;50.986;6.990;2023-03-03T16:42:27;42.75;;;15.07;;
68089;SDS011;54880;50.986;6.990;2023-03-03T16:45:03;35.00;;;13.38;;
68089;SDS011;54880;50.986;6.990;2023-03-03T16:53:33;43.55;;;15.85;;
68089;SDS011;54880;50.986;6.990;2023-03-03T16:55:31;42.00;;;15.07;;
68089;SDS011;54880;50.986;6.990;2023-03-03T16:58:13;45.55;;;15.15;;
68089;SDS011;54880;50.986;6.990;2023-03-03T17:03:14;42.78;;;14.52;;
68089;SDS011;54880;50.986;6.990;2023-03-03T17:05:58;41.78;;;14.32;;
68089;SDS011;54880;50.986;6.990;2023-03-03T17:18:23;48.93;;;14.83;;
68089;SDS011;54880;50.986;6.990;2023-03-03T17:20:50;42.90;;;15.15;;
68089;SDS011;54880;50.986;6.990;2023-03-03T17:26:03;45.13;;;15.30;;
68089;SDS011;54880;50.986;6.990;2023-03-03T17:31:03;48.97;;;15.00;;
68089;SDS011;54880;50.986;6.990;2023-03-03T17:33:38;42.03;;;14.23;;
68089;SDS011;54880;50.986;6.990;2023-03-03T17:43:54;46.70;;;15.90;;
68089;SDS011;54880;50.986;6.990;2023-03-03T17:46:33;47.78;;;15.18;;
68089;SDS011;54880;50.986;6.990;2023-03-03T17:54:14;49.60;;;16.80;;
68089;SDS011;54880;50.986;6.990;2023-03-03T17:56:50;48.80;;;14.90;;
68089;SDS011;54880;50.986;6.990;2023-03-03T18:01:58;46.03;;;14.57;;
68089;SDS011;54880;50.986;6.990;2023-03-03T18:04:43;46.45;;;15.82;;
68089;SDS011;54880;50.986;6.990;2023-03-03T18:10:15;48.95;;;16.45;;
68089;SDS011;54880;50.986;6.990;2023-03-03T18:12:50;47.40;;;16.75;;
68089;SDS011;54880;50.986;6.990;2023-03-03T18:25:52;58.55;;;21.58;;
68089;SDS011;54880;50.986;6.990;2023-03-03T18:28:20;53.90;;;22.13;;
68089;SDS011;54880;50.986;6.990;2023-03-03T18:33:15;64.18;;;22.80;;
68089;SDS011;54880;50.986;6.990;2023-03-03T18:35:46;59.87;;;23.77;;
68089;SDS011;54880;50.986;6.990;2023-03-03T18:45:57;60.83;;;23.10;;
68089;SDS011;54880;50.986;6.990;2023-03-03T18:48:43;70.03;;;24.43;;
68089;SDS011;54880;50.986;6.990;2023-03-03T18:51:07;70.77;;;26.63;;
68089;SDS011;54880;50.986;6.990;2023-03-03T18:53:33;71.53;;;26.38;;
68089;SDS011;54880;50.986;6.990;2023-03-03T18:56:00;70.17;;;26.17;;
68089;SDS011;54880;50.986;6.990;2023-03-03T18:58:27;67.20;;;27.67;;
68089;SDS011;54880;50.986;6.990;2023-03-03T19:03:32;69.78;;;25.38;;
68089;SDS011;54880;50.986;6.990;2023-03-03T19:05:58;83.00;;;27.80;;
68089;SDS011;54880;50.986;6.990;2023-03-03T19:16:05;77.57;;;29.55;;
68089;SDS011;54880;50.986;6.990;2023-03-03T19:21:06;80.72;;;28.48;;
68089;SDS011;54880;50.986;6.990;2023-03-03T19:31:31;80.97;;;28.17;;
68089;SDS011;54880;50.986;6.990;2023-03-03T19:34:05;78.45;;;29.60;;
68089;SDS011;54880;50.986;6.990;2023-03-03T19:39:37;82.87;;;30.70;;
68089;SDS011;54880;50.986;6.990;2023-03-03T19:47:02;85.47;;;31.37;;
68089;SDS011;54880;50.986;6.990;2023-03-03T19:57:04;89.57;;;35.40;;